sensor_id;sensor_type;location;lat;lon;timestamp;P1;durP1;ratioP1;P2;durP2;ratioP2
20093;SDS011;10206;48.012;10.030;2024-01-16T00:00:52;10.80;;;4.80;;
20093;SDS011;10206;48.012;10.030;2024-01-16T00:03:18;10.93;;;5.47;;
20093;SDS011;10206;48.012;10.030;2024-01-16T00:05:44;9.57;;;4.70;;
20093;SDS011;10206;48.012;10.030;2024-01-16T00:08:10;8.03;;;4.30;;
20093;SDS011;10206;48.012;10.030;2024-01-16T00:10:36;6.87;;;4.47;;
20093;SDS011;10206;48.012;10.030;2024-01-16T00:13:02;7.33;;;4.20;;
20093;SDS011;10206;48.012;10.030;2024-01-16T00:15:28;7.37;;;4.27;;
20093;SDS011;10206;48.012;10.030;2024-01-16T00:17:54;6.77;;;3.80;;
20093;SDS011;10206;48.012;10.030;2024-01-16T00:20:20;9.20;;;3.63;;
20093;SDS011;10206;48.012;10.030;2024-01-16T00:22:48;7.63;;;3.77;;
20093;SDS011;10206;48.012;10.030;2024-01-16T00:25:14;4.83;;;3.20;;
20093;SDS011;10206;48.012;10.030;2024-01-16T00:27:42;7.50;;;3.47;;
20093;SDS011;10206;48.012;10.030;2024-01-16T00:30:08;7.97;;;3.90;;
20093;SDS011;10206;48.012;10.030;2024-01-16T00:32:35;7.13;;;3.80;;
20093;SDS011;10206;48.012;10.030;2024-01-16T00:35:01;6.33;;;3.87;;
20093;SDS011;10206;48.012;10.030;2024-01-16T00:37:27;6.43;;;3.80;;
20093;SDS011;10206;48.012;10.030;2024-01-16T00:39:54;8.13;;;3.70;;
20093;SDS011;10206;48.012;10.030;2024-01-16T00:42:20;7.63;;;4.00;;
20093;SDS011;10206;48.012;10.030;2024-01-16T00:44:46;6.90;;;4.30;;
20093;SDS011;10206;48.012;10.030;2024-01-16T00:47:12;7.50;;;3.83;;
20093;SDS011;10206;48.012;10.030;2024-01-16T00:49:38;8.10;;;3.80;;
20093;SDS011;10206;48.012;10.030;2024-01-16T00:52:04;7.83;;;4.50;;
20093;SDS011;10206;48.012;10.030;2024-01-16T00:54:31;7.23;;;3.67;;
20093;SDS011;10206;48.012;10.030;2024-01-16T00:56:57;9.40;;;3.90;;
20093;SDS011;10206;48.012;10.030;2024-01-16T00:59:27;6.77;;;3.70;;
20093;SDS011;10206;48.012;10.030;2024-01-16T01:01:53;10.23;;;4.83;;
20093;SDS011;10206;48.012;10.030;2024-01-16T01:04:19;8.97;;;4.13;;
20093;SDS011;10206;48.012;10.030;2024-01-16T01:06:45;6.63;;;4.47;;
20093;SDS011;10206;48.012;10.030;2024-01-16T01:09:12;9.33;;;4.50;;
20093;SDS011;10206;48.012;10.030;2024-01-16T01:11:38;8.67;;;4.63;;
20093;SDS011;10206;48.012;10.030;2024-01-16T01:14:04;7.67;;;4.00;;
20093;SDS011;10206;48.012;10.030;2024-01-16T01:16:31;7.10;;;4.10;;
20093;SDS011;10206;48.012;10.030;2024-01-16T01:18:57;9.83;;;4.07;;
20093;SDS011;10206;48.012;10.030;2024-01-16T01:21:23;8.23;;;4.13;;
20093;SDS011;10206;48.012;10.030;2024-01-16T01:23:49;7.83;;;3.97;;
20093;SDS011;10206;48.012;10.030;2024-01-16T01:26:16;9.47;;;4.00;;
20093;SDS011;10206;48.012;10.030;2024-01-16T01:28:45;7.97;;;3.93;;
20093;SDS011;10206;48.012;10.030;2024-01-16T01:31:11;10.50;;;4.70;;
20093;SDS011;10206;48.012;10.030;2024-01-16T01:33:38;9.23;;;3.97;;
20093;SDS011;10206;48.012;10.030;2024-01-16T01:36:04;7.00;;;4.20;;
20093;SDS011;10206;48.012;10.030;2024-01-16T01:38:30;7.10;;;3.60;;
20093;SDS011;10206;48.012;10.030;2024-01-16T01:40:57;7.20;;;3.70;;
20093;SDS011;10206;48.012;10.030;2024-01-16T01:43:24;7.53;;;4.23;;
20093;SDS011;10206;48.012;10.030;2024-01-16T01:45:59;8.77;;;3.37;;
20093;SDS011;10206;48.012;10.030;2024-01-16T01:48:27;6.33;;;3.80;;
20093;SDS011;10206;48.012;10.030;2024-01-16T01:50:53;7.87;;;4.00;;
20093;SDS011;10206;48.012;10.030;2024-01-16T01:53:19;7.80;;;4.50;;
20093;SDS011;10206;48.012;10.030;2024-01-16T01:55:46;8.87;;;4.20;;
20093;SDS011;10206;48.012;10.030;2024-01-16T01:58:12;8.87;;;4.47;;
20093;SDS011;10206;48.012;10.030;2024-01-16T02:00:38;8.30;;;3.87;;
20093;SDS011;10206;48.012;10.030;2024-01-16T02:03:04;6.73;;;3.73;;
20093;SDS011;10206;48.012;10.030;2024-01-16T02:05:31;8.53;;;4.10;;
20093;SDS011;10206;48.012;10.030;2024-01-16T02:07:58;9.60;;;4.10;;
20093;SDS011;10206;48.012;10.030;2024-01-16T02:10:25;7.70;;;4.10;;
20093;SDS011;10206;48.012;10.030;2024-01-16T02:12:52;7.43;;;3.90;;
20093;SDS011;10206;48.012;10.030;2024-01-16T02:15:18;7.13;;;4.20;;
20093;SDS011;10206;48.012;10.030;2024-01-16T02:17:44;7.60;;;4.30;;
20093;SDS011;10206;48.012;10.030;2024-01-16T02:20:12;8.77;;;4.37;;
20093;SDS011;10206;48.012;10.030;2024-01-16T02:22:38;7.97;;;4.50;;
20093;SDS011;10206;48.012;10.030;2024-01-16T02:25:07;7.73;;;3.80;;
20093;SDS011;10206;48.012;10.030;2024-01-16T02:27:34;6.80;;;3.80;;
20093;SDS011;10206;48.012;10.030;2024-01-16T02:30:00;7.47;;;4.40;;
20093;SDS011;10206;48.012;10.030;2024-01-16T02:32:26;5.33;;;3.73;;
20093;SDS011;10206;48.012;10.030;2024-01-16T02:34:52;6.77;;;3.80;;
20093;SDS011;10206;48.012;10.030;2024-01-16T02:37:18;6.20;;;3.73;;
20093;SDS011;10206;48.012;10.030;2024-01-16T02:39:44;7.07;;;3.87;;
20093;SDS011;10206;48.012;10.030;2024-01-16T02:42:10;7.93;;;3.80;;
20093;SDS011;10206;48.012;10.030;2024-01-16T02:44:36;8.00;;;4.30;;
20093;SDS011;10206;48.012;10.030;2024-01-16T02:47:04;6.73;;;3.50;;
20093;SDS011;10206;48.012;10.030;2024-01-16T02:49:32;6.77;;;3.80;;
20093;SDS011;10206;48.012;10.030;2024-01-16T02:51:58;7.80;;;3.93;;
20093;SDS011;10206;48.012;10.030;2024-01-16T02:54:24;8.73;;;4.13;;
20093;SDS011;10206;48.012;10.030;2024-01-16T02:56:50;7.30;;;3.93;;
20093;SDS011;10206;48.012;10.030;2024-01-16T02:59:16;6.83;;;3.93;;
20093;SDS011;10206;48.012;10.030;2024-01-16T03:01:43;10.53;;;3.93;;
20093;SDS011;10206;48.012;10.030;2024-01-16T03:04:09;7.40;;;3.80;;
20093;SDS011;10206;48.012;10.030;2024-01-16T03:06:35;7.70;;;3.90;;
20093;SDS011;10206;48.012;10.030;2024-01-16T03:09:01;7.17;;;3.70;;
20093;SDS011;10206;48.012;10.030;2024-01-16T03:11:27;7.77;;;3.40;;
20093;SDS011;10206;48.012;10.030;2024-01-16T03:13:54;8.20;;;4.43;;
20093;SDS011;10206;48.012;10.030;2024-01-16T03:16:21;6.50;;;3.87;;
20093;SDS011;10206;48.012;10.030;2024-01-16T03:18:47;7.80;;;4.00;;
20093;SDS011;10206;48.012;10.030;2024-01-16T03:21:13;8.73;;;3.43;;
20093;SDS011;10206;48.012;10.030;2024-01-16T03:23:39;8.20;;;4.17;;
20093;SDS011;10206;48.012;10.030;2024-01-16T03:26:05;6.87;;;3.80;;
20093;SDS011;10206;48.012;10.030;2024-01-16T03:28:31;7.87;;;3.87;;
20093;SDS011;10206;48.012;10.030;2024-01-16T03:30:58;7.47;;;4.07;;
20093;SDS011;10206;48.012;10.030;2024-01-16T03:33:24;7.63;;;3.90;;
20093;SDS011;10206;48.012;10.030;2024-01-16T03:35:50;7.20;;;3.97;;
20093;SDS011;10206;48.012;10.030;2024-01-16T03:38:16;6.90;;;3.80;;
20093;SDS011;10206;48.012;10.030;2024-01-16T03:40:42;6.73;;;3.70;;
20093;SDS011;10206;48.012;10.030;2024-01-16T03:43:08;8.17;;;3.80;;
20093;SDS011;10206;48.012;10.030;2024-01-16T03:45:34;7.17;;;3.50;;
20093;SDS011;10206;48.012;10.030;2024-01-16T03:48:01;9.90;;;4.13;;
20093;SDS011;10206;48.012;10.030;2024-01-16T03:50:30;9.37;;;3.30;;
20093;SDS011;10206;48.012;10.030;2024-01-16T03:52:56;8.77;;;3.87;;
20093;SDS011;10206;48.012;10.030;2024-01-16T03:55:22;10.27;;;3.70;;
20093;SDS011;10206;48.012;10.030;2024-01-16T03:57:48;7.27;;;4.10;;
20093;SDS011;10206;48.012;10.030;2024-01-16T04:00:16;6.80;;;3.93;;
20093;SDS011;10206;48.012;10.030;2024-01-16T04:02:42;7.80;;;4.70;;
20093;SDS011;10206;48.012;10.030;2024-01-16T04:05:08;8.20;;;4.03;;
20093;SDS011;10206;48.012;10.030;2024-01-16T04:07:34;8.10;;;3.97;;
20093;SDS011;10206;48.012;10.030;2024-01-16T04:10:01;7.87;;;4.13;;
20093;SDS011;10206;48.012;10.030;2024-01-16T04:12:28;6.97;;;3.97;;
20093;SDS011;10206;48.012;10.030;2024-01-16T04:14:54;10.03;;;4.30;;
20093;SDS011;10206;48.012;10.030;2024-01-16T04:17:20;10.70;;;5.37;;
20093;SDS011;10206;48.012;10.030;2024-01-16T04:19:46;8.23;;;4.13;;
20093;SDS011;10206;48.012;10.030;2024-01-16T04:22:12;9.20;;;4.27;;
20093;SDS011;10206;48.012;10.030;2024-01-16T04:24:38;9.00;;;3.87;;
20093;SDS011;10206;48.012;10.030;2024-01-16T04:27:04;8.50;;;4.00;;
20093;SDS011;10206;48.012;10.030;2024-01-16T04:29:30;8.60;;;4.57;;
20093;SDS011;10206;48.012;10.030;2024-01-16T04:31:56;7.33;;;3.70;;
20093;SDS011;10206;48.012;10.030;2024-01-16T04:34:23;9.13;;;4.03;;
20093;SDS011;10206;48.012;10.030;2024-01-16T04:36:49;7.87;;;3.80;;
20093;SDS011;10206;48.012;10.030;2024-01-16T04:39:15;8.07;;;4.30;;
20093;SDS011;10206;48.012;10.030;2024-01-16T04:41:42;6.43;;;3.90;;
20093;SDS011;10206;48.012;10.030;2024-01-16T04:44:08;8.10;;;4.77;;
20093;SDS011;10206;48.012;10.030;2024-01-16T04:46:34;7.97;;;3.97;;
20093;SDS011;10206;48.012;10.030;2024-01-16T04:49:00;8.00;;;4.17;;
20093;SDS011;10206;48.012;10.030;2024-01-16T04:51:27;19.53;;;10.17;;
20093;SDS011;10206;48.012;10.030;2024-01-16T04:53:53;43.80;;;21.63;;
20093;SDS011;10206;48.012;10.030;2024-01-16T04:56:19;14.30;;;6.00;;
20093;SDS011;10206;48.012;10.030;2024-01-16T04:58:46;8.07;;;4.67;;
20093;SDS011;10206;48.012;10.030;2024-01-16T05:01:12;8.10;;;4.30;;
20093;SDS011;10206;48.012;10.030;2024-01-16T05:03:38;6.93;;;4.10;;
20093;SDS011;10206;48.012;10.030;2024-01-16T05:06:05;8.23;;;4.33;;
20093;SDS011;10206;48.012;10.030;2024-01-16T05:08:37;7.93;;;4.03;;
20093;SDS011;10206;48.012;10.030;2024-01-16T05:11:03;43.23;;;20.10;;
20093;SDS011;10206;48.012;10.030;2024-01-16T05:13:29;9.50;;;4.60;;
20093;SDS011;10206;48.012;10.030;2024-01-16T05:15:55;35.50;;;13.17;;
20093;SDS011;10206;48.012;10.030;2024-01-16T05:18:21;10.50;;;4.03;;
20093;SDS011;10206;48.012;10.030;2024-01-16T05:20:47;7.03;;;3.60;;
20093;SDS011;10206;48.012;10.030;2024-01-16T05:23:13;7.80;;;4.10;;
20093;SDS011;10206;48.012;10.030;2024-01-16T05:25:40;8.37;;;3.60;;
20093;SDS011;10206;48.012;10.030;2024-01-16T05:28:06;6.50;;;3.67;;
20093;SDS011;10206;48.012;10.030;2024-01-16T05:30:32;6.53;;;3.83;;
20093;SDS011;10206;48.012;10.030;2024-01-16T05:32:58;6.30;;;3.57;;
20093;SDS011;10206;48.012;10.030;2024-01-16T05:35:26;9.17;;;4.00;;
20093;SDS011;10206;48.012;10.030;2024-01-16T05:37:53;8.33;;;3.97;;
20093;SDS011;10206;48.012;10.030;2024-01-16T05:40:20;9.83;;;4.70;;
20093;SDS011;10206;48.012;10.030;2024-01-16T05:42:47;7.77;;;4.73;;
20093;SDS011;10206;48.012;10.030;2024-01-16T05:45:14;10.17;;;5.30;;
20093;SDS011;10206;48.012;10.030;2024-01-16T05:47:41;13.50;;;6.87;;
20093;SDS011;10206;48.012;10.030;2024-01-16T05:50:07;15.47;;;8.37;;
20093;SDS011;10206;48.012;10.030;2024-01-16T05:52:33;11.20;;;6.13;;
20093;SDS011;10206;48.012;10.030;2024-01-16T05:55:00;9.73;;;4.90;;
20093;SDS011;10206;48.012;10.030;2024-01-16T05:57:28;9.53;;;4.60;;
20093;SDS011;10206;48.012;10.030;2024-01-16T05:59:56;13.10;;;6.80;;
20093;SDS011;10206;48.012;10.030;2024-01-16T06:02:23;13.90;;;6.70;;
20093;SDS011;10206;48.012;10.030;2024-01-16T06:04:49;18.63;;;8.83;;
20093;SDS011;10206;48.012;10.030;2024-01-16T06:07:16;16.83;;;8.43;;
20093;SDS011;10206;48.012;10.030;2024-01-16T06:09:42;16.03;;;7.50;;
20093;SDS011;10206;48.012;10.030;2024-01-16T06:12:08;13.60;;;7.37;;
20093;SDS011;10206;48.012;10.030;2024-01-16T06:14:34;13.90;;;6.60;;
20093;SDS011;10206;48.012;10.030;2024-01-16T06:17:00;15.20;;;6.40;;
20093;SDS011;10206;48.012;10.030;2024-01-16T06:19:28;27.43;;;10.27;;
20093;SDS011;10206;48.012;10.030;2024-01-16T06:21:54;19.50;;;7.77;;
20093;SDS011;10206;48.012;10.030;2024-01-16T06:24:20;12.07;;;6.67;;
20093;SDS011;10206;48.012;10.030;2024-01-16T06:26:46;13.13;;;6.50;;
20093;SDS011;10206;48.012;10.030;2024-01-16T06:29:12;12.87;;;7.20;;
20093;SDS011;10206;48.012;10.030;2024-01-16T06:31:38;14.10;;;6.47;;
20093;SDS011;10206;48.012;10.030;2024-01-16T06:34:04;13.67;;;6.73;;
20093;SDS011;10206;48.012;10.030;2024-01-16T06:36:30;13.93;;;6.17;;
20093;SDS011;10206;48.012;10.030;2024-01-16T06:38:57;11.27;;;6.50;;
20093;SDS011;10206;48.012;10.030;2024-01-16T06:41:23;16.87;;;8.27;;
20093;SDS011;10206;48.012;10.030;2024-01-16T06:43:49;14.33;;;6.90;;
20093;SDS011;10206;48.012;10.030;2024-01-16T06:46:15;14.20;;;7.07;;
20093;SDS011;10206;48.012;10.030;2024-01-16T06:48:41;11.80;;;5.73;;
20093;SDS011;10206;48.012;10.030;2024-01-16T06:51:07;11.87;;;5.57;;
20093;SDS011;10206;48.012;10.030;2024-01-16T06:53:35;11.07;;;5.83;;
20093;SDS011;10206;48.012;10.030;2024-01-16T06:56:02;10.90;;;5.30;;
20093;SDS011;10206;48.012;10.030;2024-01-16T06:58:28;10.47;;;5.40;;
20093;SDS011;10206;48.012;10.030;2024-01-16T07:00:54;9.27;;;4.70;;
20093;SDS011;10206;48.012;10.030;2024-01-16T07:03:20;10.10;;;5.10;;
20093;SDS011;10206;48.012;10.030;2024-01-16T07:05:46;14.23;;;6.20;;
20093;SDS011;10206;48.012;10.030;2024-01-16T07:08:12;11.67;;;6.03;;
20093;SDS011;10206;48.012;10.030;2024-01-16T07:10:38;11.60;;;5.90;;
20093;SDS011;10206;48.012;10.030;2024-01-16T07:13:04;10.30;;;5.57;;
20093;SDS011;10206;48.012;10.030;2024-01-16T07:15:32;9.90;;;4.90;;
20093;SDS011;10206;48.012;10.030;2024-01-16T07:17:58;11.23;;;6.27;;
20093;SDS011;10206;48.012;10.030;2024-01-16T07:20:24;13.00;;;6.07;;
20093;SDS011;10206;48.012;10.030;2024-01-16T07:22:50;11.80;;;6.47;;
20093;SDS011;10206;48.012;10.030;2024-01-16T07:25:16;13.37;;;6.60;;
20093;SDS011;10206;48.012;10.030;2024-01-16T07:27:42;13.90;;;6.60;;
20093;SDS011;10206;48.012;10.030;2024-01-16T07:30:11;12.67;;;6.17;;
20093;SDS011;10206;48.012;10.030;2024-01-16T07:32:38;14.93;;;6.30;;
20093;SDS011;10206;48.012;10.030;2024-01-16T07:35:04;14.70;;;6.60;;
20093;SDS011;10206;48.012;10.030;2024-01-16T07:37:30;14.97;;;7.53;;
20093;SDS011;10206;48.012;10.030;2024-01-16T07:39:56;14.33;;;6.43;;
20093;SDS011;10206;48.012;10.030;2024-01-16T07:42:22;14.37;;;7.10;;
20093;SDS011;10206;48.012;10.030;2024-01-16T07:44:48;16.93;;;7.63;;
20093;SDS011;10206;48.012;10.030;2024-01-16T07:47:15;11.33;;;6.20;;
20093;SDS011;10206;48.012;10.030;2024-01-16T07:49:41;14.13;;;7.33;;
20093;SDS011;10206;48.012;10.030;2024-01-16T07:52:07;16.53;;;6.67;;
20093;SDS011;10206;48.012;10.030;2024-01-16T07:54:33;14.80;;;7.57;;
20093;SDS011;10206;48.012;10.030;2024-01-16T07:56:59;16.33;;;7.47;;
20093;SDS011;10206;48.012;10.030;2024-01-16T07:59:25;15.40;;;7.17;;
20093;SDS011;10206;48.012;10.030;2024-01-16T08:01:51;14.40;;;6.50;;
20093;SDS011;10206;48.012;10.030;2024-01-16T08:04:18;8.67;;;5.17;;
20093;SDS011;10206;48.012;10.030;2024-01-16T08:06:45;11.90;;;6.50;;
20093;SDS011;10206;48.012;10.030;2024-01-16T08:09:11;13.20;;;5.97;;
20093;SDS011;10206;48.012;10.030;2024-01-16T08:11:37;12.47;;;5.80;;
20093;SDS011;10206;48.012;10.030;2024-01-16T08:14:04;13.70;;;6.23;;
20093;SDS011;10206;48.012;10.030;2024-01-16T08:16:30;10.40;;;5.53;;
20093;SDS011;10206;48.012;10.030;2024-01-16T08:18:56;11.97;;;6.10;;
20093;SDS011;10206;48.012;10.030;2024-01-16T08:21:23;19.30;;;9.33;;
20093;SDS011;10206;48.012;10.030;2024-01-16T08:23:49;16.33;;;8.73;;
20093;SDS011;10206;48.012;10.030;2024-01-16T08:26:15;19.87;;;9.43;;
20093;SDS011;10206;48.012;10.030;2024-01-16T08:28:41;17.77;;;8.77;;
20093;SDS011;10206;48.012;10.030;2024-01-16T08:31:07;16.43;;;8.37;;
20093;SDS011;10206;48.012;10.030;2024-01-16T08:33:33;19.33;;;9.30;;
20093;SDS011;10206;48.012;10.030;2024-01-16T08:35:59;27.83;;;11.10;;
20093;SDS011;10206;48.012;10.030;2024-01-16T08:38:25;30.60;;;13.13;;
20093;SDS011;10206;48.012;10.030;2024-01-16T08:40:52;29.30;;;14.87;;
20093;SDS011;10206;48.012;10.030;2024-01-16T08:43:18;28.10;;;15.30;;
20093;SDS011;10206;48.012;10.030;2024-01-16T08:45:44;24.80;;;13.83;;
20093;SDS011;10206;48.012;10.030;2024-01-16T08:48:12;20.37;;;11.30;;
20093;SDS011;10206;48.012;10.030;2024-01-16T08:50:40;15.13;;;7.77;;
20093;SDS011;10206;48.012;10.030;2024-01-16T08:53:06;14.50;;;7.27;;
20093;SDS011;10206;48.012;10.030;2024-01-16T08:55:32;10.20;;;6.10;;
20093;SDS011;10206;48.012;10.030;2024-01-16T08:57:58;11.17;;;6.13;;
20093;SDS011;10206;48.012;10.030;2024-01-16T09:00:24;10.40;;;4.80;;
20093;SDS011;10206;48.012;10.030;2024-01-16T09:02:50;11.63;;;6.07;;
20093;SDS011;10206;48.012;10.030;2024-01-16T09:05:16;13.20;;;6.30;;
20093;SDS011;10206;48.012;10.030;2024-01-16T09:07:42;8.50;;;5.33;;
20093;SDS011;10206;48.012;10.030;2024-01-16T09:10:09;10.27;;;6.10;;
20093;SDS011;10206;48.012;10.030;2024-01-16T09:12:35;10.53;;;6.03;;
20093;SDS011;10206;48.012;10.030;2024-01-16T09:15:01;15.37;;;6.80;;
20093;SDS011;10206;48.012;10.030;2024-01-16T09:17:27;12.37;;;6.20;;
20093;SDS011;10206;48.012;10.030;2024-01-16T09:19:53;16.47;;;8.83;;
20093;SDS011;10206;48.012;10.030;2024-01-16T09:22:19;16.37;;;9.30;;
20093;SDS011;10206;48.012;10.030;2024-01-16T09:24:46;16.13;;;8.33;;
20093;SDS011;10206;48.012;10.030;2024-01-16T09:27:12;19.53;;;10.63;;
20093;SDS011;10206;48.012;10.030;2024-01-16T09:29:39;20.70;;;10.30;;
20093;SDS011;10206;48.012;10.030;2024-01-16T09:32:05;29.40;;;14.83;;
20093;SDS011;10206;48.012;10.030;2024-01-16T09:34:31;28.77;;;14.40;;
20093;SDS011;10206;48.012;10.030;2024-01-16T09:36:58;22.97;;;11.83;;
20093;SDS011;10206;48.012;10.030;2024-01-16T09:39:26;11.40;;;7.57;;
20093;SDS011;10206;48.012;10.030;2024-01-16T09:41:52;11.20;;;6.47;;
20093;SDS011;10206;48.012;10.030;2024-01-16T09:44:18;11.83;;;6.97;;
20093;SDS011;10206;48.012;10.030;2024-01-16T09:46:45;11.93;;;7.13;;
20093;SDS011;10206;48.012;10.030;2024-01-16T09:49:14;13.83;;;7.40;;
20093;SDS011;10206;48.012;10.030;2024-01-16T09:51:42;11.87;;;7.07;;
20093;SDS011;10206;48.012;10.030;2024-01-16T09:54:08;21.77;;;10.07;;
20093;SDS011;10206;48.012;10.030;2024-01-16T09:56:35;16.90;;;9.43;;
20093;SDS011;10206;48.012;10.030;2024-01-16T09:59:06;18.27;;;9.60;;
20093;SDS011;10206;48.012;10.030;2024-01-16T10:01:35;23.53;;;13.43;;
20093;SDS011;10206;48.012;10.030;2024-01-16T10:04:02;22.50;;;12.47;;
20093;SDS011;10206;48.012;10.030;2024-01-16T10:06:29;14.30;;;8.67;;
20093;SDS011;10206;48.012;10.030;2024-01-16T10:08:56;24.67;;;12.13;;
20093;SDS011;10206;48.012;10.030;2024-01-16T10:11:23;44.67;;;21.43;;
20093;SDS011;10206;48.012;10.030;2024-01-16T10:13:49;61.10;;;26.50;;
20093;SDS011;10206;48.012;10.030;2024-01-16T10:16:15;14.97;;;9.60;;
20093;SDS011;10206;48.012;10.030;2024-01-16T10:18:42;19.67;;;11.53;;
20093;SDS011;10206;48.012;10.030;2024-01-16T10:21:21;15.60;;;9.90;;
20093;SDS011;10206;48.012;10.030;2024-01-16T10:23:47;30.30;;;14.77;;
20093;SDS011;10206;48.012;10.030;2024-01-16T10:26:14;25.30;;;13.87;;
20093;SDS011;10206;48.012;10.030;2024-01-16T10:28:43;40.97;;;18.40;;
20093;SDS011;10206;48.012;10.030;2024-01-16T10:31:09;24.20;;;13.17;;
20093;SDS011;10206;48.012;10.030;2024-01-16T10:33:37;17.10;;;10.03;;
20093;SDS011;10206;48.012;10.030;2024-01-16T10:36:10;15.47;;;9.57;;
20093;SDS011;10206;48.012;10.030;2024-01-16T10:38:42;15.77;;;8.63;;
20093;SDS011;10206;48.012;10.030;2024-01-16T10:41:18;13.27;;;8.37;;
20093;SDS011;10206;48.012;10.030;2024-01-16T10:43:46;13.67;;;8.67;;
20093;SDS011;10206;48.012;10.030;2024-01-16T10:46:13;15.87;;;9.63;;
20093;SDS011;10206;48.012;10.030;2024-01-16T10:48:42;20.60;;;10.90;;
20093;SDS011;10206;48.012;10.030;2024-01-16T10:51:10;28.70;;;13.90;;
20093;SDS011;10206;48.012;10.030;2024-01-16T10:53:41;41.73;;;18.33;;
20093;SDS011;10206;48.012;10.030;2024-01-16T10:56:14;50.33;;;21.13;;
20093;SDS011;10206;48.012;10.030;2024-01-16T10:58:44;39.27;;;16.00;;
20093;SDS011;10206;48.012;10.030;2024-01-16T11:01:16;27.83;;;12.57;;
20093;SDS011;10206;48.012;10.030;2024-01-16T11:03:47;17.60;;;10.70;;
20093;SDS011;10206;48.012;10.030;2024-01-16T11:06:15;16.00;;;10.50;;
20093;SDS011;10206;48.012;10.030;2024-01-16T11:08:42;15.47;;;9.50;;
20093;SDS011;10206;48.012;10.030;2024-01-16T11:11:12;16.00;;;9.10;;
20093;SDS011;10206;48.012;10.030;2024-01-16T11:13:39;17.83;;;10.03;;
20093;SDS011;10206;48.012;10.030;2024-01-16T11:16:10;28.93;;;17.53;;
20093;SDS011;10206;48.012;10.030;2024-01-16T11:18:36;26.87;;;17.13;;
20093;SDS011;10206;48.012;10.030;2024-01-16T11:21:10;28.13;;;15.53;;
20093;SDS011;10206;48.012;10.030;2024-01-16T11:23:37;14.47;;;8.10;;
20093;SDS011;10206;48.012;10.030;2024-01-16T11:28:49;9.53;;;5.80;;
20093;SDS011;10206;48.012;10.030;2024-01-16T11:31:34;11.23;;;6.70;;
20093;SDS011;10206;48.012;10.030;2024-01-16T11:34:01;10.27;;;5.67;;
20093;SDS011;10206;48.012;10.030;2024-01-16T11:39:22;9.87;;;5.30;;
20093;SDS011;10206;48.012;10.030;2024-01-16T11:47:15;8.70;;;4.77;;
20093;SDS011;10206;48.012;10.030;2024-01-16T11:49:43;8.47;;;4.80;;
20093;SDS011;10206;48.012;10.030;2024-01-16T11:52:09;7.93;;;5.00;;
20093;SDS011;10206;48.012;10.030;2024-01-16T11:54:37;7.67;;;5.50;;
20093;SDS011;10206;48.012;10.030;2024-01-16T11:59:57;7.50;;;4.90;;
20093;SDS011;10206;48.012;10.030;2024-01-16T12:03:00;10.57;;;5.73;;
20093;SDS011;10206;48.012;10.030;2024-01-16T12:05:19;10.83;;;5.97;;
20093;SDS011;10206;48.012;10.030;2024-01-16T12:07:49;11.47;;;6.20;;
20093;SDS011;10206;48.012;10.030;2024-01-16T12:10:18;10.43;;;6.70;;
20093;SDS011;10206;48.012;10.030;2024-01-16T12:12:46;10.37;;;6.20;;
20093;SDS011;10206;48.012;10.030;2024-01-16T12:15:20;10.80;;;6.27;;
20093;SDS011;10206;48.012;10.030;2024-01-16T12:17:53;9.90;;;5.90;;
20093;SDS011;10206;48.012;10.030;2024-01-16T12:20:20;12.30;;;6.60;;
20093;SDS011;10206;48.012;10.030;2024-01-16T12:22:53;12.87;;;6.97;;
20093;SDS011;10206;48.012;10.030;2024-01-16T12:25:21;12.23;;;6.83;;
20093;SDS011;10206;48.012;10.030;2024-01-16T12:27:58;11.17;;;6.80;;
20093;SDS011;10206;48.012;10.030;2024-01-16T12:30:32;13.13;;;7.50;;
20093;SDS011;10206;48.012;10.030;2024-01-16T12:35:35;11.33;;;6.07;;
20093;SDS011;10206;48.012;10.030;2024-01-16T12:38:03;17.60;;;6.37;;
20093;SDS011;10206;48.012;10.030;2024-01-16T12:40:31;11.50;;;6.03;;
20093;SDS011;10206;48.012;10.030;2024-01-16T12:42:58;11.03;;;5.73;;
20093;SDS011;10206;48.012;10.030;2024-01-16T12:45:24;12.30;;;6.53;;
20093;SDS011;10206;48.012;10.030;2024-01-16T12:47:53;12.23;;;6.70;;
20093;SDS011;10206;48.012;10.030;2024-01-16T12:50:23;9.53;;;6.00;;
20093;SDS011;10206;48.012;10.030;2024-01-16T12:55:50;11.77;;;6.20;;
20093;SDS011;10206;48.012;10.030;2024-01-16T12:58:34;9.37;;;5.67;;
20093;SDS011;10206;48.012;10.030;2024-01-16T13:03:50;27.17;;;12.63;;
20093;SDS011;10206;48.012;10.030;2024-01-16T13:06:20;15.77;;;7.83;;
20093;SDS011;10206;48.012;10.030;2024-01-16T13:08:48;25.70;;;12.80;;
20093;SDS011;10206;48.012;10.030;2024-01-16T13:11:14;10.77;;;6.77;;
20093;SDS011;10206;48.012;10.030;2024-01-16T13:13:44;15.33;;;8.27;;
20093;SDS011;10206;48.012;10.030;2024-01-16T13:16:12;15.60;;;7.40;;
20093;SDS011;10206;48.012;10.030;2024-01-16T13:18:40;15.70;;;9.17;;
20093;SDS011;10206;48.012;10.030;2024-01-16T13:21:06;12.63;;;6.57;;
20093;SDS011;10206;48.012;10.030;2024-01-16T13:23:32;19.93;;;10.03;;
20093;SDS011;10206;48.012;10.030;2024-01-16T13:25:58;11.50;;;6.37;;
20093;SDS011;10206;48.012;10.030;2024-01-16T13:28:24;11.40;;;6.30;;
20093;SDS011;10206;48.012;10.030;2024-01-16T13:30:51;13.07;;;6.27;;
20093;SDS011;10206;48.012;10.030;2024-01-16T13:33:17;16.93;;;7.50;;
20093;SDS011;10206;48.012;10.030;2024-01-16T13:35:44;15.03;;;7.13;;
20093;SDS011;10206;48.012;10.030;2024-01-16T13:38:14;12.87;;;8.03;;
20093;SDS011;10206;48.012;10.030;2024-01-16T13:40:41;13.23;;;7.63;;
20093;SDS011;10206;48.012;10.030;2024-01-16T13:43:07;10.33;;;6.23;;
20093;SDS011;10206;48.012;10.030;2024-01-16T13:45:34;11.00;;;7.13;;
20093;SDS011;10206;48.012;10.030;2024-01-16T13:48:03;14.50;;;6.90;;
20093;SDS011;10206;48.012;10.030;2024-01-16T13:50:33;12.23;;;6.27;;
20093;SDS011;10206;48.012;10.030;2024-01-16T13:53:00;11.03;;;6.70;;
20093;SDS011;10206;48.012;10.030;2024-01-16T13:55:27;10.73;;;7.23;;
20093;SDS011;10206;48.012;10.030;2024-01-16T13:57:53;12.43;;;6.70;;
20093;SDS011;10206;48.012;10.030;2024-01-16T14:00:19;11.20;;;6.67;;
20093;SDS011;10206;48.012;10.030;2024-01-16T14:02:46;12.80;;;7.40;;
20093;SDS011;10206;48.012;10.030;2024-01-16T14:05:13;10.77;;;6.70;;
20093;SDS011;10206;48.012;10.030;2024-01-16T14:07:44;12.73;;;7.07;;
20093;SDS011;10206;48.012;10.030;2024-01-16T14:10:13;14.40;;;7.23;;
20093;SDS011;10206;48.012;10.030;2024-01-16T14:12:40;13.83;;;7.67;;
20093;SDS011;10206;48.012;10.030;2024-01-16T14:15:13;16.57;;;8.30;;
20093;SDS011;10206;48.012;10.030;2024-01-16T14:17:45;15.67;;;8.23;;
20093;SDS011;10206;48.012;10.030;2024-01-16T14:20:15;13.83;;;7.60;;
20093;SDS011;10206;48.012;10.030;2024-01-16T14:22:43;13.83;;;7.27;;
20093;SDS011;10206;48.012;10.030;2024-01-16T14:25:10;13.67;;;7.93;;
20093;SDS011;10206;48.012;10.030;2024-01-16T14:27:38;16.50;;;8.20;;
20093;SDS011;10206;48.012;10.030;2024-01-16T14:30:09;15.13;;;7.80;;
20093;SDS011;10206;48.012;10.030;2024-01-16T14:32:37;13.27;;;7.57;;
20093;SDS011;10206;48.012;10.030;2024-01-16T14:35:08;13.03;;;8.30;;
20093;SDS011;10206;48.012;10.030;2024-01-16T14:37:38;15.63;;;8.40;;
20093;SDS011;10206;48.012;10.030;2024-01-16T14:40:06;19.87;;;9.77;;
20093;SDS011;10206;48.012;10.030;2024-01-16T14:42:41;15.77;;;8.67;;
20093;SDS011;10206;48.012;10.030;2024-01-16T14:45:12;19.30;;;10.30;;
20093;SDS011;10206;48.012;10.030;2024-01-16T14:47:39;23.27;;;11.47;;